Time;durP1;ratioP1;P1;durP2;ratioP2;P2;SDS_P1;SDS_P2;PMS_P1;PMS_P2;Temp;Humidity;BMP_temperature;BMP_pressure;BME280_temperature;BME280_humidity;BME280_pressure;Samples;Min_cycle;Max_cycle;Signal;HPM_P1;HPM_P2
2023/08/17 00:00:51;;;;;;;10.60;7.87;;;;;;;23.70;100.00;101465.81;2520874;23;20179;-63
2023/08/17 00:01:51;;;;;;;9.13;8.03;;;;;;;22.76;100.00;101320.00;2520974;23;20242;-64
2023/08/17 00:02:51;;;;;;;8.60;7.70;;;;;;;23.72;100.00;101465.31;2520753;23;20590;-63
2023/08/17 00:03:52;;;;;;;8.50;7.67;;;;;;;23.74;100.00;101465.59;2521285;23;20166;-63
2023/08/17 00:04:52;;;;;;;9.30;7.43;;;;;;;23.71;100.00;101461.72;2521117;23;20237;-64
2023/08/17 00:05:53;;;;;;;10.13;8.23;;;;;;;23.73;100.00;101470.47;2520694;23;20155;-63
2023/08/17 00:06:53;;;;;;;9.70;7.77;;;;;;;23.75;100.00;101465.09;2521063;23;20159;-64
2023/08/17 00:07:53;;;;;;;10.17;7.70;;;;;;;23.78;100.00;101483.13;2521082;23;20183;-64
2023/08/17 00:08:54;;;;;;;8.27;6.90;;;;;;;23.80;100.00;101472.84;2520982;23;20162;-64
2023/08/17 00:09:54;;;;;;;9.63;8.03;;;;;;;23.80;100.00;101472.09;2520772;23;20420;-64
2023/08/17 00:10:55;;;;;;;9.10;8.20;;;;;;;23.85;100.00;101460.78;2521064;23;20234;-64
2023/08/17 00:11:55;;;;;;;8.60;7.63;;;;;;;23.88;100.00;101473.94;2520706;23;20159;-64
2023/08/17 00:12:56;;;;;;;10.03;7.90;;;;;;;23.43;100.00;101397.72;2521080;23;20233;-64
2023/08/17 00:13:56;;;;;;;10.23;7.90;;;;;;;23.20;100.00;101370.53;2521119;23;20155;-64
2023/08/17 00:14:57;;;;;;;11.60;8.30;;;;;;;23.78;100.00;101466.91;2520952;23;20251;-63
2023/08/17 00:15:57;;;;;;;10.00;8.10;;;;;;;23.79;100.00;101471.28;2520711;23;20232;-64
2023/08/17 00:16:58;;;;;;;9.07;8.00;;;;;;;23.75;100.00;101473.56;2520203;23;20214;-64
2023/08/17 00:17:58;;;;;;;8.80;7.90;;;;;;;23.72;100.00;101468.94;2521128;23;20609;-64
2023/08/17 00:18:58;;;;;;;8.73;7.87;;;;;;;23.68;100.00;101476.88;2520238;23;20159;-63
2023/08/17 00:19:59;;;;;;;11.77;7.93;;;;;;;23.59;100.00;101468.56;2519868;23;20171;-64
2023/08/17 00:20:59;;;;;;;13.10;8.20;;;;;;;23.40;100.00;101453.25;2520974;23;20209;-63
2023/08/17 00:22:00;;;;;;;11.07;8.30;;;;;;;23.41;100.00;101468.94;2520674;23;20568;-64
2023/08/17 00:23:00;;;;;;;10.53;8.57;;;;;;;23.38;100.00;101464.28;2520984;23;20246;-63
2023/08/17 00:24:01;;;;;;;9.47;8.47;;;;;;;23.47;100.00;101478.25;2521187;23;20210;-63
2023/08/17 00:25:04;;;;;;;11.20;8.63;;;;;;;23.51;100.00;101475.19;2521266;23;20166;-63
2023/08/17 00:26:05;;;;;;;9.67;8.67;;;;;;;23.53;100.00;101472.63;2520497;23;20177;-64
2023/08/17 00:27:05;;;;;;;8.93;8.03;;;;;;;23.56;100.00;101465.97;2520736;23;20454;-64
2023/08/17 00:28:05;;;;;;;13.10;8.40;;;;;;;23.52;100.00;101469.03;2521292;23;20151;-64
2023/08/17 00:29:06;;;;;;;10.07;8.40;;;;;;;23.47;100.00;101472.59;2521005;23;20158;-63
2023/08/17 00:30:07;;;;;;;8.70;7.90;;;;;;;23.41;100.00;101468.94;2520647;23;20594;-64
2023/08/17 00:31:07;;;;;;;9.13;7.90;;;;;;;;;;2520207;23;20147;-63
2023/08/17 00:32:07;;;;;;;10.97;8.23;;;;;;;23.38;100.00;101474.81;2520601;23;20528;-64
2023/08/17 00:33:08;;;;;;;9.57;8.57;;;;;;;23.45;100.00;101486.47;2521122;23;20151;-63
2023/08/17 00:34:08;;;;;;;9.37;8.47;;;;;;;23.49;100.00;101487.00;2521087;23;20162;-64
2023/08/17 00:35:09;;;;;;;9.50;8.17;;;;;;;23.53;100.00;101483.94;2520896;23;20151;-63
2023/08/17 00:36:09;;;;;;;8.77;7.87;;;;;;;23.55;100.00;101478.56;2520461;23;20596;-64
2023/08/17 00:37:09;;;;;;;10.43;8.57;;;;;;;23.45;100.00;101455.34;2520638;23;20602;-64
2023/08/17 00:38:10;;;;;;;9.47;8.03;;;;;;;23.53;100.00;101466.97;2520982;23;20573;-63
2023/08/17 00:39:10;;;;;;;9.67;7.73;;;;;;;23.59;100.00;101482.72;2520752;23;20155;-64
2023/08/17 00:40:11;;;;;;;10.97;8.00;;;;;;;23.30;100.00;101434.91;2520720;23;20155;-63
2023/08/17 00:41:11;;;;;;;9.13;8.17;;;;;;;23.65;100.00;101479.94;2520963;23;20270;-63
2023/08/17 00:42:12;;;;;;;10.43;8.20;;;;;;;23.69;100.00;101484.09;2520893;23;20151;-64
2023/08/17 00:43:12;;;;;;;9.40;8.30;;;;;;;23.75;100.00;101476.41;2520926;23;20183;-63
2023/08/17 00:44:13;;;;;;;8.83;7.93;;;;;;;23.76;100.00;101477.97;2521033;23;20505;-64
2023/08/17 00:45:13;;;;;;;9.53;7.80;;;;;;;23.61;100.00;101456.75;2520457;23;20158;-64
2023/08/17 00:46:14;;;;;;;12.77;8.03;;;;;;;23.78;100.00;101471.78;2520589;23;20162;-64
2023/08/17 00:47:14;;;;;;;13.13;8.20;;;;;;;23.81;100.00;101473.63;2520739;23;20182;-64
2023/08/17 00:48:15;;;;;;;10.90;7.93;;;;;;;23.84;100.00;101472.63;2521013;23;20155;-63
2023/08/17 00:49:15;;;;;;;9.60;7.80;;;;;;;23.85;100.00;101483.44;2521112;23;20503;-64
2023/08/17 00:50:16;;;;;;;9.00;7.67;;;;;;;23.84;100.00;101479.06;2520595;23;20185;-63
2023/08/17 00:51:20;;;;;;;8.57;7.60;;;;;;;23.87;100.00;101485.75;2520350;23;20162;-64
2023/08/17 00:52:20;;;;;;;8.83;7.93;;;;;;;23.87;100.00;101468.78;2520825;23;20175;-64
2023/08/17 00:53:21;;;;;;;8.73;7.43;;;;;;;23.90;100.00;101473.47;2520473;23;20179;-63
2023/08/17 00:54:25;;;;;;;9.47;8.13;;;;;;;23.91;100.00;101461.63;2520846;23;20151;-64
2023/08/17 00:55:26;;;;;;;10.67;8.10;;;;;;;23.90;100.00;101462.91;2520756;23;20218;-63
2023/08/17 00:56:27;;;;;;;9.93;8.10;;;;;;;23.18;100.00;101376.69;2520154;23;20211;-64
2023/08/17 00:57:28;;;;;;;10.57;8.17;;;;;;;23.80;100.00;101472.09;2520608;23;20143;-64
2023/08/17 00:58:29;;;;;;;9.60;8.60;;;;;;;23.79;100.00;101479.78;2508285;23;20156;-64
2023/08/17 00:59:29;;;;;;;10.10;8.50;;;;;;;23.64;100.00;101467.06;2507816;23;20582;-63
2023/08/17 01:00:31;;;;;;;9.30;8.40;;;;;;;23.69;100.00;101478.41;2520147;23;20552;-63
2023/08/17 01:01:31;;;;;;;10.30;8.43;;;;;;;23.65;100.00;101482.78;2521077;23;20468;-63
2023/08/17 01:02:33;;;;;;;11.20;8.70;;;;;;;23.08;100.00;101395.06;2520473;23;20147;-63
2023/08/17 01:03:34;;;;;;;10.80;8.10;;;;;;;23.56;100.00;101480.13;2520566;23;20155;-63
2023/08/17 01:04:35;;;;;;;9.27;8.37;;;;;;;23.56;100.00;101482.94;2520955;23;20147;-63
2023/08/17 01:05:36;;;;;;;9.83;8.83;;;;;;;23.53;100.00;101484.72;2520571;23;20594;-64
2023/08/17 01:06:36;;;;;;;11.27;8.43;;;;;;;23.51;100.00;101489.34;2520656;23;20151;-63
2023/08/17 01:07:37;;;;;;;10.90;8.60;;;;;;;23.52;100.00;101486.00;2520834;23;20186;-63
2023/08/17 01:08:38;;;;;;;10.87;8.30;;;;;;;23.50;100.00;101491.38;2520684;23;20151;-63
2023/08/17 01:09:38;;;;;;;9.40;8.40;;;;;;;23.42;100.00;101490.28;2520363;23;20158;-63
2023/08/17 01:11:01;;;;;;;13.00;8.63;;;;;;;23.55;100.00;101487.81;2520965;23;20614;-64
2023/08/17 01:12:24;;;;;;;8.93;7.80;;;;;;;23.28;100.00;101448.75;2520878;23;20147;-63
2023/08/17 01:13:59;;;;;;;9.70;8.80;;;;;;;23.32;100.00;101457.00;2520340;23;20136;-64
2023/08/17 01:15:18;;;;;;;9.57;8.60;;;;;;;23.48;100.00;101493.16;2472373;24;20166;-64
2023/08/17 01:16:27;;;;;;;10.30;8.20;;;;;;;22.73;100.00;101368.25;2519623;23;20594;-64
2023/08/17 01:17:49;;;;;;;9.13;8.30;;;;;;;23.54;100.00;101494.00;2520372;23;20146;-64
2023/08/17 01:18:51;;;;;;;9.20;8.23;;;;;;;23.56;100.00;101491.44;2520664;23;20139;-64
2023/08/17 01:19:53;;;;;;;11.33;8.40;;;;;;;22.74;100.00;101370.59;2520238;23;20166;-64
2023/08/17 01:20:54;;;;;;;11.87;8.70;;;;;;;23.48;100.00;101495.97;2507846;23;20192;-63
2023/08/17 01:22:03;;;;;;;8.93;8.13;;;;;;;23.47;100.00;101492.38;2508440;23;20217;-63
2023/08/17 01:23:07;;;;;;;10.47;9.00;;;;;;;23.48;100.00;101495.97;2520823;23;20140;-64
2023/08/17 01:24:08;;;;;;;9.07;8.03;;;;;;;23.51;100.00;101492.94;2520533;23;20155;-64
2023/08/17 01:25:08;;;;;;;10.97;8.27;;;;;;;23.57;100.00;101492.97;2520647;23;20594;-63
2023/08/17 01:26:09;;;;;;;9.03;8.17;;;;;;;22.87;100.00;101390.75;2520117;23;20537;-64
2023/08/17 01:27:09;;;;;;;10.10;8.20;;;;;;;23.53;100.00;101493.22;2520429;23;20179;-64
2023/08/17 01:28:10;;;;;;;11.47;8.27;;;;;;;23.55;100.00;101484.22;2520609;23;20613;-64
2023/08/17 01:29:11;;;;;;;9.67;8.13;;;;;;;23.57;100.00;101490.16;2520731;23;20206;-64
2023/08/17 01:30:14;;;;;;;10.77;8.80;;;;;;;23.53;100.00;101487.56;2520399;23;20560;-64
2023/08/17 01:31:24;;;;;;;10.83;8.10;;;;;;;23.54;100.00;101489.09;2520741;23;20151;-64
2023/08/17 01:32:33;;;;;;;9.97;8.23;;;;;;;23.56;100.00;101489.38;2520705;23;20571;-63
2023/08/17 01:33:40;;;;;;;10.77;8.10;;;;;;;23.32;100.00;101454.19;2520663;23;20143;-63
2023/08/17 01:34:47;;;;;;;8.83;7.60;;;;;;;23.60;100.00;101487.09;2520460;23;20201;-63
2023/08/17 01:36:19;;;;;;;10.53;8.10;;;;;;;23.56;100.00;101491.44;2520160;23;20142;-64
2023/08/17 01:37:23;;;;;;;10.47;8.53;;;;;;;22.75;100.00;101377.78;2514485;23;20163;-64
2023/08/17 01:38:27;;;;;;;10.13;8.03;;;;;;;23.57;100.00;101496.59;2520739;23;20175;-63
2023/08/17 01:39:34;;;;;;;9.37;8.10;;;;;;;22.82;100.00;101380.16;2520627;23;20182;-63
2023/08/17 01:40:34;;;;;;;8.57;7.70;;;;;;;23.59;100.00;101501.75;2520438;23;20144;-64
2023/08/17 01:41:37;;;;;;;8.53;7.80;;;;;;;23.60;100.00;101497.66;2520665;23;20151;-64
2023/08/17 01:42:39;;;;;;;11.20;7.80;;;;;;;23.62;100.00;101500.75;2519891;23;20179;-63
2023/08/17 01:43:45;;;;;;;10.33;7.90;;;;;;;23.61;100.00;101497.16;2520616;23;20161;-64
2023/08/17 01:44:46;;;;;;;8.93;8.03;;;;;;;23.60;100.00;101498.41;2520062;23;20602;-63
2023/08/17 01:45:46;;;;;;;10.40;8.20;;;;;;;23.60;100.00;101498.41;2520321;23;20490;-64
2023/08/17 01:46:47;;;;;;;9.53;7.97;;;;;;;23.63;100.00;101499.47;2520578;23;20155;-64
2023/08/17 01:47:49;;;;;;;9.63;7.57;;;;;;;23.64;100.00;101498.19;2520591;23;20234;-64
2023/08/17 01:48:49;;;;;;;10.47;7.87;;;;;;;23.65;100.00;101496.91;2507891;23;20167;-64
2023/08/17 01:49:49;;;;;;;11.77;7.70;;;;;;;23.64;100.00;101492.53;2507770;23;20615;-64
2023/08/17 01:50:50;;;;;;;9.20;8.10;;;;;;;23.63;100.00;101493.78;2520542;23;20175;-64
2023/08/17 01:51:50;;;;;;;10.97;8.70;;;;;;;23.64;100.00;101487.63;2520641;23;20151;-64
2023/08/17 01:52:51;;;;;;;9.83;7.73;;;;;;;23.59;100.00;101490.44;2520629;23;20675;-64
2023/08/17 01:53:51;;;;;;;9.67;7.87;;;;;;;23.64;100.00;101493.31;2520842;23;20183;-64
2023/08/17 01:54:52;;;;;;;11.07;7.70;;;;;;;23.65;100.00;101494.84;2520034;23;20261;-63
2023/08/17 01:55:52;;;;;;;9.00;7.60;;;;;;;23.65;100.00;101494.84;2520115;23;20513;-64
2023/08/17 01:56:52;;;;;;;8.80;7.90;;;;;;;23.64;100.00;101493.31;2520236;23;20608;-64
2023/08/17 01:57:53;;;;;;;9.40;8.10;;;;;;;23.63;100.00;101497.41;2520611;23;20187;-64
2023/08/17 01:58:53;;;;;;;9.17;7.90;;;;;;;23.64;100.00;101498.19;2520824;23;20151;-63
2023/08/17 01:59:54;;;;;;;9.77;7.53;;;;;;;23.63;100.00;101494.59;2520168;23;20222;-64
2023/08/17 02:00:54;;;;;;;10.83;7.93;;;;;;;23.64;100.00;101495.38;2520709;23;20207;-64
2023/08/17 02:01:54;;;;;;;8.77;7.90;;;;;;;23.64;100.00;101487.63;2520715;23;20155;-64
2023/08/17 02:02:55;;;;;;;10.57;8.03;;;;;;;23.63;100.00;101493.78;2520503;23;20151;-64
2023/08/17 02:03:55;;;;;;;10.80;7.67;;;;;;;23.63;100.00;101494.59;2520758;23;20250;-64
2023/08/17 02:04:56;;;;;;;8.90;7.80;;;;;;;23.64;100.00;101493.31;2520661;23;20152;-64
2023/08/17 02:05:56;;;;;;;9.77;7.93;;;;;;;23.61;100.00;101491.50;2519990;23;20247;-64
2023/08/17 02:06:57;;;;;;;12.23;8.43;;;;;;;23.60;100.00;101492.75;2520453;23;20617;-64
2023/08/17 02:07:57;;;;;;;11.77;8.27;;;;;;;23.58;100.00;101492.47;2520811;23;20151;-64
2023/08/17 02:08:59;;;;;;;13.23;8.20;;;;;;;23.57;100.00;101490.16;2520444;23;20226;-64
2023/08/17 02:09:59;;;;;;;14.23;8.33;;;;;;;23.55;100.00;101487.81;2520318;23;20182;-64
2023/08/17 02:10:59;;;;;;;24.93;8.90;;;;;;;23.55;100.00;101490.66;2520100;23;20151;-64
2023/08/17 02:12:00;;;;;;;17.47;8.53;;;;;;;23.53;100.00;101492.41;2519951;23;20185;-64
2023/08/17 02:13:00;;;;;;;17.83;8.70;;;;;;;23.51;100.00;101487.28;2520761;23;20238;-64
2023/08/17 02:14:00;;;;;;;11.90;7.80;;;;;;;23.47;100.00;101495.22;2520482;23;20151;-64
2023/08/17 02:15:01;;;;;;;10.77;7.67;;;;;;;23.45;100.00;101492.13;2520507;23;20174;-64
2023/08/17 02:16:02;;;;;;;8.50;7.30;;;;;;;23.43;100.00;101491.84;2519590;23;20242;-63
2023/08/17 02:17:02;;;;;;;9.77;7.47;;;;;;;23.44;100.00;101486.97;2520435;23;20181;-64
2023/08/17 02:18:03;;;;;;;12.27;7.73;;;;;;;23.43;100.00;101485.41;2520567;23;20207;-64
2023/08/17 02:19:03;;;;;;;12.73;7.90;;;;;;;23.42;100.00;101483.84;2520640;23;20159;-64
2023/08/17 02:20:04;;;;;;;9.53;7.70;;;;;;;22.60;100.00;101368.66;2520280;23;20179;-64
2023/08/17 02:21:05;;;;;;;12.23;7.90;;;;;;;23.40;100.00;101484.38;2520511;23;20183;-64
2023/08/17 02:22:05;;;;;;;12.00;8.63;;;;;;;23.38;100.00;101491.78;2520776;23;20179;-64
2023/08/17 02:23:05;;;;;;;10.60;8.93;;;;;;;23.22;100.00;101466.94;2520564;23;20522;-64
2023/08/17 02:24:06;;;;;;;11.83;8.80;;;;;;;23.28;100.00;101491.16;2520681;23;20630;-63
2023/08/17 02:25:07;;;;;;;10.03;8.10;;;;;;;23.25;100.00;101495.00;2520565;23;20159;-64
2023/08/17 02:26:08;;;;;;;9.97;9.03;;;;;;;23.19;100.00;101493.41;2518917;23;20158;-64
2023/08/17 02:27:09;;;;;;;11.17;8.33;;;;;;;23.11;100.00;101495.06;2520318;23;20155;-64
2023/08/17 02:28:09;;;;;;;14.23;8.73;;;;;;;23.08;100.00;101485.53;2520741;23;20158;-63
2023/08/17 02:29:10;;;;;;;12.47;8.33;;;;;;;23.09;100.00;101491.97;2520574;23;20158;-64
2023/08/17 02:30:11;;;;;;;13.03;7.87;;;;;;;23.11;100.00;101493.03;2520327;23;20210;-64
2023/08/17 02:31:11;;;;;;;9.13;7.53;;;;;;;23.11;100.00;101492.25;2520642;23;20155;-64
2023/08/17 02:32:12;;;;;;;12.50;8.10;;;;;;;23.10;100.00;101493.53;2520544;23;20155;-64
2023/08/17 02:33:12;;;;;;;11.83;8.23;;;;;;;23.10;100.00;101487.88;2520480;23;20182;-64
2023/08/17 02:34:13;;;;;;;10.00;8.07;;;;;;;23.09;100.00;101487.09;2520348;23;20586;-64
2023/08/17 02:35:13;;;;;;;10.10;9.00;;;;;;;23.05;100.00;101485.75;2520198;23;20159;-63
2023/08/17 02:36:13;;;;;;;10.67;8.00;;;;;;;23.01;100.00;101488.81;2519675;23;20234;-64
2023/08/17 02:37:14;;;;;;;11.20;8.20;;;;;;;23.04;100.00;101496.31;2520327;23;20151;-64
2023/08/17 02:38:14;;;;;;;13.73;8.30;;;;;;;22.80;100.00;101444.91;2520844;23;20158;-64
2023/08/17 02:39:15;;;;;;;10.40;7.70;;;;;;;23.05;100.00;101486.56;2520099;23;20155;-64
2023/08/17 02:40:16;;;;;;;10.43;7.23;;;;;;;23.04;100.00;101487.03;2519589;23;20178;-64
2023/08/17 02:41:16;;;;;;;12.63;7.93;;;;;;;23.04;100.00;101487.03;2520311;23;20275;-64
2023/08/17 02:42:16;;;;;;;9.87;7.93;;;;;;;23.02;100.00;101483.94;2520600;23;20238;-64
2023/08/17 02:43:17;;;;;;;12.50;8.00;;;;;;;23.02;100.00;101481.13;2520541;23;20218;-64
2023/08/17 02:44:17;;;;;;;13.03;8.70;;;;;;;23.01;100.00;101482.38;2520669;23;20183;-64
2023/08/17 02:45:18;;;;;;;10.43;8.30;;;;;;;22.91;100.00;101481.75;2520478;23;20154;-64
2023/08/17 02:46:18;;;;;;;11.20;8.10;;;;;;;22.91;100.00;101486.63;2519664;23;20159;-64
2023/08/17 02:47:18;;;;;;;10.77;8.10;;;;;;;22.93;100.00;101481.28;2520422;23;20185;-64
2023/08/17 02:48:19;;;;;;;10.77;8.90;;;;;;;22.91;100.00;101490.25;2520560;23;20621;-64
2023/08/17 02:49:20;;;;;;;10.07;9.17;;;;;;;22.90;100.00;101485.88;2520461;23;20286;-63
2023/08/17 02:50:20;;;;;;;11.17;9.20;;;;;;;22.83;100.00;101486.28;2520200;23;20226;-63
2023/08/17 02:51:21;;;;;;;12.13;9.53;;;;;;;22.79;100.00;101487.78;2520396;23;20143;-64
2023/08/17 02:52:21;;;;;;;10.20;8.30;;;;;;;22.79;100.00;101484.94;2520698;23;20590;-63
2023/08/17 02:53:22;;;;;;;15.03;9.63;;;;;;;22.82;100.00;101495.28;2520603;23;20613;-64
2023/08/17 02:54:22;;;;;;;14.80;9.80;;;;;;;22.82;100.00;101490.38;2519774;23;20576;-64
2023/08/17 02:55:22;;;;;;;11.07;9.13;;;;;;;22.77;100.00;101491.09;2520628;23;20474;-64
2023/08/17 02:56:23;;;;;;;14.30;9.80;;;;;;;22.72;100.00;101491.81;2519444;23;20508;-63
2023/08/17 02:57:23;;;;;;;13.20;9.40;;;;;;;22.72;100.00;101499.53;2520329;23;20558;-64
2023/08/17 02:58:24;;;;;;;12.80;8.30;;;;;;;22.74;100.00;101492.09;2520644;23;20612;-64
2023/08/17 02:59:24;;;;;;;12.60;8.77;;;;;;;22.76;100.00;101497.25;2520355;23;20171;-64
2023/08/17 03:00:25;;;;;;;13.53;9.20;;;;;;;22.60;100.00;101464.69;2507434;23;20182;-64
2023/08/17 03:01:25;;;;;;;12.23;8.33;;;;;;;22.70;100.00;101488.72;2507732;23;20274;-64
2023/08/17 03:02:26;;;;;;;9.47;7.97;;;;;;;22.74;100.00;101494.94;2520672;23;20154;-64
2023/08/17 03:03:26;;;;;;;14.47;8.20;;;;;;;22.72;100.00;101488.97;2520577;23;20534;-64
2023/08/17 03:04:26;;;;;;;9.63;8.67;;;;;;;22.73;100.00;101492.59;2520637;23;20673;-64
2023/08/17 03:05:27;;;;;;;13.63;8.47;;;;;;;22.74;100.00;101489.28;2520418;23;20628;-64
2023/08/17 03:06:27;;;;;;;14.03;8.73;;;;;;;22.75;100.00;101490.03;2519826;23;20173;-64
2023/08/17 03:07:28;;;;;;;12.23;7.90;;;;;;;22.74;100.00;101488.50;2519909;23;20230;-63
2023/08/17 03:08:28;;;;;;;11.53;8.37;;;;;;;22.72;100.00;101491.81;2519836;23;20162;-63
2023/08/17 03:09:29;;;;;;;14.47;8.53;;;;;;;22.72;100.00;101485.41;2520490;23;20181;-64
2023/08/17 03:10:29;;;;;;;10.50;8.20;;;;;;;22.70;100.00;101485.88;2520057;23;20147;-64
2023/08/17 03:11:30;;;;;;;14.00;8.50;;;;;;;22.68;100.00;101487.66;2520544;23;20150;-64
2023/08/17 03:12:30;;;;;;;10.53;8.23;;;;;;;22.35;100.00;101434.31;2520679;23;20148;-63
2023/08/17 03:13:31;;;;;;;11.30;9.13;;;;;;;21.84;100.00;101357.13;2520371;23;20154;-63
2023/08/17 03:14:31;;;;;;;12.70;8.73;;;;;;;22.64;100.00;101489.91;2520534;23;20216;-63
2023/08/17 03:15:31;;;;;;;11.40;8.77;;;;;;;22.65;100.00;101488.63;2520339;23;20598;-63
2023/08/17 03:16:32;;;;;;;11.80;8.77;;;;;;;22.67;100.00;101488.94;2519901;23;20151;-64
2023/08/17 03:17:32;;;;;;;10.20;8.77;;;;;;;22.68;100.00;101488.41;2519732;23;20238;-64
2023/08/17 03:18:33;;;;;;;9.97;8.37;;;;;;;22.67;100.00;101486.09;2520543;23;20430;-64
2023/08/17 03:19:33;;;;;;;14.20;8.40;;;;;;;22.68;100.00;101490.47;2520304;23;20182;-63
2023/08/17 03:20:33;;;;;;;11.37;9.43;;;;;;;22.68;100.00;101487.66;2520417;23;20147;-64
2023/08/17 03:21:34;;;;;;;10.00;9.00;;;;;;;21.94;100.00;101376.28;2520423;23;20669;-64
2023/08/17 03:22:35;;;;;;;11.30;9.07;;;;;;;22.60;100.00;101483.69;2520423;23;20151;-64
2023/08/17 03:23:35;;;;;;;11.83;8.40;;;;;;;22.63;100.00;101491.94;2506747;23;20158;-64
2023/08/17 03:24:35;;;;;;;10.50;9.40;;;;;;;22.61;100.00;101488.84;2507792;23;20152;-63
2023/08/17 03:25:37;;;;;;;12.43;9.50;;;;;;;22.59;100.00;101491.41;2520482;23;20210;-64
2023/08/17 03:26:37;;;;;;;11.57;9.20;;;;;;;22.18;100.00;101426.88;2521217;23;20566;-63
2023/08/17 03:27:38;;;;;;;10.53;8.50;;;;;;;22.60;100.00;101487.31;2520479;23;20163;-64
2023/08/17 03:28:38;;;;;;;9.93;8.60;;;;;;;22.55;100.00;101481.56;2521519;23;20155;-64
2023/08/17 03:29:39;;;;;;;14.10;9.13;;;;;;;22.59;100.00;101493.44;2520806;23;20151;-64
2023/08/17 03:30:39;;;;;;;12.73;9.27;;;;;;;22.55;100.00;101485.19;2521336;23;20481;-63
2023/08/17 03:31:40;;;;;;;13.40;9.97;;;;;;;22.52;100.00;101488.97;2521120;23;20550;-64
2023/08/17 03:32:40;;;;;;;11.10;9.53;;;;;;;22.52;100.00;101496.69;2521295;23;20576;-63
2023/08/17 03:33:41;;;;;;;11.23;10.10;;;;;;;22.51;100.00;101498.72;2521183;23;20156;-63
2023/08/17 03:34:41;;;;;;;11.60;10.43;;;;;;;22.48;100.00;101504.59;2521322;23;20159;-63
2023/08/17 03:35:42;;;;;;;14.93;10.43;;;;;;;22.48;100.00;101501.78;2520567;23;20155;-64
2023/08/17 03:36:42;;;;;;;11.70;9.60;;;;;;;22.45;100.00;101503.53;2521385;23;20705;-64
2023/08/17 03:37:42;;;;;;;11.23;10.13;;;;;;;22.50;100.00;101502.03;2520042;23;20550;-64
2023/08/17 03:38:43;;;;;;;13.10;10.27;;;;;;;22.48;100.00;101507.41;2521151;23;20524;-63
2023/08/17 03:39:43;;;;;;;11.40;10.20;;;;;;;22.44;100.00;101496.34;2506556;23;20175;-64
2023/08/17 03:40:44;;;;;;;11.43;9.87;;;;;;;22.46;100.00;101515.63;2508241;23;20238;-64
2023/08/17 03:41:44;;;;;;;13.53;9.17;;;;;;;22.17;100.00;101465.66;2520177;23;20159;-64
2023/08/17 03:42:45;;;;;;;10.60;9.47;;;;;;;22.45;100.00;101512.00;2520381;23;20182;-63
2023/08/17 03:43:45;;;;;;;10.20;8.87;;;;;;;21.76;100.00;101399.13;2521335;23;20610;-64
2023/08/17 03:44:46;;;;;;;12.20;8.20;;;;;;;22.48;100.00;101516.69;2521252;23;20158;-63
2023/08/17 03:45:46;;;;;;;12.57;9.40;;;;;;;22.49;100.00;101511.78;2520638;23;20165;-63
2023/08/17 03:46:46;;;;;;;12.70;8.77;;;;;;;22.50;100.00;101514.13;2521049;23;20159;-63
2023/08/17 03:47:47;;;;;;;14.93;9.03;;;;;;;22.42;100.00;101503.72;2520710;23;20155;-64
2023/08/17 03:48:47;;;;;;;12.37;8.93;;;;;;;22.54;100.00;101513.91;2520933;23;20151;-63
2023/08/17 03:49:48;;;;;;;14.77;9.10;;;;;;;22.56;100.00;101523.44;2520719;23;20151;-63
2023/08/17 03:50:53;;;;;;;18.67;9.57;;;;;;;22.54;100.00;101516.75;2521095;23;20158;-64
2023/08/17 03:51:53;;;;;;;12.17;9.13;;;;;;;22.53;100.00;101518.81;2520724;23;20226;-64
2023/08/17 03:52:53;;;;;;;14.90;9.47;;;;;;;22.55;100.00;101515.47;2521179;23;20245;-64
2023/08/17 03:53:54;;;;;;;13.33;9.13;;;;;;;22.57;100.00;101521.41;2521221;23;20159;-63
2023/08/17 03:54:54;;;;;;;11.93;8.60;;;;;;;22.60;100.00;101520.41;2520982;23;20206;-64
2023/08/17 03:55:55;;;;;;;13.70;9.17;;;;;;;22.59;100.00;101521.69;2520536;23;20230;-64
2023/08/17 03:56:55;;;;;;;13.43;9.13;;;;;;;22.60;100.00;101523.22;2520990;23;20151;-64
2023/08/17 03:57:55;;;;;;;10.97;8.70;;;;;;;22.63;100.00;101530.75;2508231;23;20234;-64
2023/08/17 03:58:56;;;;;;;12.13;8.77;;;;;;;22.67;100.00;101522.84;2508138;23;20156;-63
2023/08/17 03:59:56;;;;;;;10.60;8.40;;;;;;;22.69;100.00;101531.56;2520567;23;20217;-63
2023/08/17 04:00:57;;;;;;;10.60;8.67;;;;;;;22.67;100.00;101528.47;2521031;23;20538;-63
2023/08/17 04:01:57;;;;;;;13.63;9.00;;;;;;;22.23;100.00;101454.41;2508636;23;20187;-63
2023/08/17 04:02:57;;;;;;;12.93;9.43;;;;;;;22.70;100.00;101527.47;2508329;23;20151;-63
2023/08/17 04:03:58;;;;;;;6.90;6.23;;;;;;;22.69;100.00;101528.75;2520630;23;20155;-59
2023/08/17 04:04:58;;;;;;;6.23;5.63;;;;;;;23.27;100.00;101517.91;2515337;23;20151;-59
2023/08/17 04:06:04;;;;;;;5.03;4.53;;;;;;;23.86;100.00;101510.47;2518804;23;20158;-59
2023/08/17 04:07:06;;;;;;;6.10;5.50;;;;;;;24.22;100.00;101500.44;2519822;23;20162;-59
2023/08/17 04:08:08;;;;;;;9.70;6.70;;;;;;;24.25;100.00;101503.03;2521100;23;20159;-60
2023/08/17 04:09:09;;;;;;;7.93;5.73;;;;;;;24.26;100.00;101498.91;2520680;23;20151;-59
2023/08/17 04:10:09;;;;;;;8.80;5.87;;;;;;;24.49;100.00;101497.00;2520219;23;20155;-60
2023/08/17 04:11:09;;;;;;;5.83;5.03;;;;;;;24.03;100.00;101412.31;2521266;23;20147;-59
2023/08/17 04:12:10;;;;;;;8.90;6.10;;;;;;;24.60;100.00;101492.19;2520890;23;20161;-59
2023/08/17 04:13:10;;;;;;;9.80;6.33;;;;;;;24.67;100.00;101491.69;2521003;23;20182;-59
2023/08/17 04:14:12;;;;;;;9.83;5.70;;;;;;;24.59;100.00;101493.47;2518584;23;20203;-59
2023/08/17 04:15:12;;;;;;;8.87;5.37;;;;;;;24.03;100.00;101432.13;2520365;23;20230;-60
2023/08/17 04:16:12;;;;;;;6.03;5.17;;;;;;;24.59;100.00;101499.13;2519410;23;20159;-60
2023/08/17 04:17:13;;;;;;;8.50;5.70;;;;;;;24.83;100.00;101505.16;2520876;23;20243;-59
2023/08/17 04:18:13;;;;;;;7.33;5.13;;;;;;;24.67;100.00;101465.41;2521069;23;20583;-60
2023/08/17 04:19:14;;;;;;;7.13;5.07;;;;;;;25.05;100.00;101498.78;2520735;23;20163;-59
2023/08/17 04:20:14;;;;;;;7.80;5.00;;;;;;;24.60;100.00;101429.06;2520041;23;20290;-60
2023/08/17 04:21:15;;;;;;;10.63;5.30;;;;;;;25.00;100.00;101502.38;2520906;23;20262;-59
2023/08/17 04:22:15;;;;;;;7.53;4.97;;;;;;;25.03;100.00;101501.34;2521049;23;20151;-59
2023/08/17 04:23:16;;;;;;;10.77;4.47;;;;;;;25.20;100.00;101502.94;2521062;23;20609;-60
2023/08/17 04:24:16;;;;;;;7.63;4.90;;;;;;;25.22;100.00;101505.25;2520972;23;20637;-60
2023/08/17 04:25:17;;;;;;;11.27;5.20;;;;;;;25.19;100.00;101511.97;2520981;23;20709;-60
2023/08/17 04:26:17;;;;;;;8.90;5.30;;;;;;;25.32;100.00;101503.75;2519499;23;20189;-59
2023/08/17 04:27:17;;;;;;;8.17;4.83;;;;;;;25.13;100.00;101497.75;2520640;23;20158;-59
2023/08/17 04:28:18;;;;;;;8.93;5.27;;;;;;;25.03;100.00;101498.53;2521039;23;20147;-59
2023/08/17 04:29:18;;;;;;;11.13;5.43;;;;;;;24.84;100.00;101480.41;2520485;23;20178;-60
2023/08/17 04:30:19;;;;;;;11.47;5.17;;;;;;;24.92;100.00;101499.25;2520560;23;20238;-59
2023/08/17 04:31:19;;;;;;;7.90;4.87;;;;;;;25.08;100.00;101509.88;2517580;23;20151;-59
2023/08/17 04:32:20;;;;;;;11.33;5.10;;;;;;;25.06;100.00;101514.50;2519640;23;20158;-59
2023/08/17 04:33:20;;;;;;;9.63;4.93;;;;;;;25.12;100.00;101513.25;2519522;23;20174;-60
2023/08/17 04:34:20;;;;;;;8.47;5.23;;;;;;;25.22;100.00;101516.59;2520178;23;20580;-60
2023/08/17 04:35:21;;;;;;;8.07;4.70;;;;;;;25.21;100.00;101518.69;2520434;23;20608;-59
2023/08/17 04:36:21;;;;;;;9.10;5.70;;;;;;;25.28;100.00;101515.38;2519571;23;20211;-60
2023/08/17 04:37:22;;;;;;;10.00;5.50;;;;;;;25.20;100.00;101514.31;2520234;23;20228;-59
2023/08/17 04:38:22;;;;;;;8.93;5.43;;;;;;;25.13;100.00;101523.28;2520605;23;20178;-60
2023/08/17 04:39:23;;;;;;;8.90;5.63;;;;;;;25.10;100.00;101520.72;2520303;23;20182;-60
2023/08/17 04:40:23;;;;;;;11.80;4.97;;;;;;;25.11;100.00;101517.38;2520304;23;20163;-60